Time;durP1;ratioP1;P1;durP2;ratioP2;P2;SDS_P1;SDS_P2;PMS_P1;PMS_P2;Temp;Humidity;BMP_temperature;BMP_pressure;BME280_temperature;BME280_humidity;BME280_pressure;Samples;Min_cycle;Max_cycle;Signal;HPM_P1;HPM_P2
2022/07/30 00:00:09;;;;;;;12.67;10.10;;;;;;;;;;5067744;28;20051;-58
2022/07/30 00:02:36;;;;;;;14.50;8.40;;;;;;;;;;5068470;28;20565;-58
2022/07/30 00:05:02;;;;;;;14.20;8.33;;;;;;;;;;5068536;28;20421;-58
2022/07/30 00:07:28;;;;;;;11.63;6.80;;;;;;;;;;5067883;28;20414;-59
2022/07/30 00:09:54;;;;;;;10.67;8.13;;;;;;;;;;5068013;28;20087;-58
2022/07/30 00:12:20;;;;;;;13.23;9.27;;;;;;;;;;5068424;28;20442;-58
2022/07/30 00:14:46;;;;;;;13.67;8.93;;;;;;;;;;5068413;28;20616;-59
2022/07/30 00:17:12;;;;;;;10.63;8.23;;;;;;;;;;5068161;28;20041;-58
2022/07/30 00:19:38;;;;;;;12.87;9.03;;;;;;;;;;5067660;28;20047;-58
2022/07/30 00:22:04;;;;;;;15.70;9.30;;;;;;;;;;5067909;28;20048;-58
2022/07/30 00:24:30;;;;;;;15.47;9.30;;;;;;;;;;5068170;28;20041;-58
2022/07/30 00:26:56;;;;;;;18.30;10.30;;;;;;;;;;5068070;28;20040;-59
2022/07/30 00:29:22;;;;;;;15.20;9.33;;;;;;;;;;5067651;28;20055;-58
2022/07/30 00:31:48;;;;;;;12.70;10.50;;;;;;;;;;5067457;28;20042;-58
2022/07/30 00:34:14;;;;;;;16.53;10.17;;;;;;;;;;5068098;28;20136;-58
2022/07/30 00:36:40;;;;;;;12.80;10.60;;;;;;;;;;5068110;28;20415;-58
2022/07/30 00:39:06;;;;;;;15.60;9.57;;;;;;;;;;5068241;28;20056;-58
2022/07/30 00:41:33;;;;;;;16.50;11.50;;;;;;;;;;5067224;28;20055;-58
2022/07/30 00:43:59;;;;;;;18.07;12.03;;;;;;;;;;5067682;28;20088;-59
2022/07/30 00:46:24;;;;;;;12.70;10.70;;;;;;;;;;5067497;28;20088;-59
2022/07/30 00:48:51;;;;;;;22.13;13.37;;;;;;;;;;5067959;28;20170;-58
2022/07/30 00:51:17;;;;;;;18.53;11.30;;;;;;;;;;5068032;28;20452;-58
2022/07/30 00:53:43;;;;;;;15.97;9.20;;;;;;;;;;5067725;28;20048;-58
2022/07/30 00:56:09;;;;;;;13.90;11.10;;;;;;;;;;5067506;28;20049;-58
2022/07/30 00:58:35;;;;;;;21.03;14.23;;;;;;;;;;5067811;28;20048;-58
2022/07/30 01:01:01;;;;;;;22.13;16.53;;;;;;;;;;5067852;28;20060;-59
2022/07/30 01:03:27;;;;;;;23.90;18.87;;;;;;;;;;5067876;28;20048;-59
2022/07/30 01:05:53;;;;;;;34.90;24.27;;;;;;;;;;5067638;28;20491;-58
2022/07/30 01:08:19;;;;;;;23.50;16.67;;;;;;;;;;5067264;28;20048;-58
2022/07/30 01:10:45;;;;;;;23.50;17.97;;;;;;;;;;5067733;28;20049;-58
2022/07/30 01:13:12;;;;;;;19.23;16.23;;;;;;;;;;5067609;28;20048;-58
2022/07/30 01:15:38;;;;;;;21.93;18.07;;;;;;;;;;5067558;28;20053;-58
2022/07/30 01:18:05;;;;;;;29.93;21.87;;;;;;;;;;5066889;28;20119;-59
2022/07/30 01:20:34;;;;;;;25.43;18.47;;;;;;;;;;5067443;28;20135;-59
2022/07/30 01:23:06;;;;;;;34.67;25.83;;;;;;;;;;5067903;28;20381;-58
2022/07/30 01:25:32;;;;;;;30.20;23.97;;;;;;;;;;5067599;28;20105;-58
2022/07/30 01:28:00;;;;;;;15.63;11.67;;;;;;;;;;5067657;28;20559;-58
2022/07/30 01:30:30;;;;;;;18.53;13.63;;;;;;;;;;5067291;28;20048;-58
2022/07/30 01:32:57;;;;;;;19.40;11.90;;;;;;;;;;5067226;28;20044;-58
2022/07/30 01:35:24;;;;;;;21.93;15.17;;;;;;;;;;5067351;28;20418;-58
2022/07/30 01:37:51;;;;;;;24.03;17.70;;;;;;;;;;5067182;28;20486;-59
2022/07/30 01:40:17;;;;;;;26.10;20.97;;;;;;;;;;5068084;28;20426;-58
2022/07/30 01:42:44;;;;;;;21.43;16.77;;;;;;;;;;5067424;28;20044;-58
2022/07/30 01:45:11;;;;;;;27.87;20.80;;;;;;;;;;5066500;28;20063;-58
2022/07/30 01:47:38;;;;;;;27.17;20.57;;;;;;;;;;5067480;28;20105;-58
2022/07/30 01:50:05;;;;;;;34.43;24.10;;;;;;;;;;5067774;28;20094;-58
2022/07/30 01:52:32;;;;;;;47.83;29.53;;;;;;;;;;5066923;28;20041;-58
2022/07/30 01:55:00;;;;;;;47.00;30.43;;;;;;;;;;5067146;28;20047;-58
2022/07/30 01:57:26;;;;;;;44.33;28.43;;;;;;;;;;5069032;28;20047;-58
2022/07/30 01:59:57;;;;;;;58.23;34.73;;;;;;;;;;5065814;28;20159;-58
2022/07/30 02:02:23;;;;;;;84.97;43.23;;;;;;;;;;5060607;28;20044;-58
2022/07/30 02:04:49;;;;;;;218.27;68.43;;;;;;;;;;5071054;28;20131;-58
2022/07/30 02:07:23;;;;;;;145.37;48.37;;;;;;;;;;5070598;28;20048;-59
2022/07/30 02:09:55;;;;;;;194.47;59.57;;;;;;;;;;5069111;28;20486;-59
2022/07/30 02:12:28;;;;;;;247.77;72.67;;;;;;;;;;5051140;28;20116;-58
2022/07/30 02:14:57;;;;;;;196.60;62.15;;;;;;;;;;5050707;28;20091;-58
2022/07/30 02:17:29;;;;;;;120.37;51.40;;;;;;;;;;5050614;28;20068;-58
2022/07/30 02:19:56;;;;;;;80.70;38.03;;;;;;;;;;5050197;28;20045;-59
2022/07/30 02:22:23;;;;;;;78.33;38.87;;;;;;;;;;5067574;28;20155;-58
2022/07/30 02:24:50;;;;;;;35.77;25.37;;;;;;;;;;5070053;28;20521;-58
2022/07/30 02:27:19;;;;;;;45.50;26.83;;;;;;;;;;5070695;28;20048;-58
2022/07/30 02:29:47;;;;;;;79.83;35.13;;;;;;;;;;5070335;28;21131;-58
2022/07/30 02:32:14;;;;;;;97.80;45.03;;;;;;;;;;5070333;28;20052;-59
2022/07/30 02:34:41;;;;;;;47.37;27.27;;;;;;;;;;5070036;28;20067;-58
2022/07/30 02:37:08;;;;;;;87.67;33.30;;;;;;;;;;5050853;28;20041;-58
2022/07/30 02:39:35;;;;;;;56.03;29.97;;;;;;;;;;5050308;28;20078;-59
2022/07/30 02:42:02;;;;;;;37.83;24.67;;;;;;;;;;5050084;28;20554;-58
2022/07/30 02:44:29;;;;;;;111.23;39.07;;;;;;;;;;5049803;28;20080;-59
2022/07/30 02:46:55;;;;;;;299.70;66.90;;;;;;;;;;5066525;28;20048;-59
2022/07/30 02:49:22;;;;;;;227.30;62.30;;;;;;;;;;5069910;28;20048;-59
2022/07/30 02:51:48;;;;;;;516.77;108.40;;;;;;;;;;5070150;28;20053;-58
2022/07/30 02:54:17;;;;;;;393.13;83.83;;;;;;;;;;5069826;28;20041;-59
2022/07/30 02:56:45;;;;;;;564.63;100.03;;;;;;;;;;5070141;28;20057;-59
2022/07/30 02:59:12;;;;;;;419.13;75.73;;;;;;;;;;5069690;28;20064;-59
2022/07/30 03:01:38;;;;;;;552.00;106.07;;;;;;;;;;5052257;28;20095;-59
2022/07/30 03:04:05;;;;;;;290.67;68.13;;;;;;;;;;5049856;28;20506;-59
2022/07/30 03:06:32;;;;;;;424.00;93.30;;;;;;;;;;5049624;28;20074;-59
2022/07/30 03:08:59;;;;;;;520.27;112.63;;;;;;;;;;5049203;28;20037;-58
2022/07/30 03:11:26;;;;;;;336.33;83.90;;;;;;;;;;5048707;28;20756;-58
2022/07/30 03:13:52;;;;;;;451.70;98.33;;;;;;;;;;5049840;28;20045;-59
2022/07/30 03:16:21;;;;;;;263.07;69.47;;;;;;;;;;5049884;28;20523;-59
2022/07/30 03:18:48;;;;;;;339.83;84.97;;;;;;;;;;5067964;28;20461;-59
2022/07/30 03:21:15;;;;;;;303.87;78.47;;;;;;;;;;5069316;28;20094;-59
2022/07/30 03:23:43;;;;;;;124.10;40.23;;;;;;;;;;5068900;28;20090;-58
2022/07/30 03:26:11;;;;;;;186.67;53.00;;;;;;;;;;5069351;28;20048;-58
2022/07/30 03:28:38;;;;;;;156.43;49.10;;;;;;;;;;5069543;28;20052;-59
2022/07/30 03:31:05;;;;;;;119.40;48.30;;;;;;;;;;5050377;28;20048;-58
2022/07/30 03:33:32;;;;;;;155.83;52.47;;;;;;;;;;5049080;28;20065;-59
2022/07/30 03:35:58;;;;;;;210.27;58.93;;;;;;;;;;5049044;28;20483;-59
2022/07/30 03:38:24;;;;;;;263.27;64.00;;;;;;;;;;5048896;28;20391;-59
2022/07/30 03:40:51;;;;;;;312.10;63.20;;;;;;;;;;5049225;28;20136;-58
2022/07/30 03:43:17;;;;;;;408.90;79.70;;;;;;;;;;5049024;28;20052;-59
2022/07/30 03:45:44;;;;;;;222.03;53.53;;;;;;;;;;5065966;28;20107;-59
2022/07/30 03:48:12;;;;;;;400.63;76.27;;;;;;;;;;5068892;28;20049;-59
2022/07/30 03:50:41;;;;;;;447.37;82.77;;;;;;;;;;5068951;28;20121;-59
2022/07/30 03:53:08;;;;;;;424.23;80.60;;;;;;;;;;5068824;28;20051;-58
2022/07/30 03:55:34;;;;;;;338.03;64.33;;;;;;;;;;5068628;28;20043;-59
2022/07/30 03:58:01;;;;;;;422.93;72.10;;;;;;;;;;5068963;28;20044;-59
2022/07/30 04:00:27;;;;;;;387.23;74.77;;;;;;;;;;5050639;28;20080;-59
2022/07/30 04:02:54;;;;;;;256.00;52.37;;;;;;;;;;5048273;28;20410;-59
2022/07/30 04:05:21;;;;;;;300.43;64.20;;;;;;;;;;5048753;28;20045;-59
2022/07/30 04:07:47;;;;;;;279.23;58.60;;;;;;;;;;5048307;28;20072;-59
2022/07/30 04:10:14;;;;;;;374.43;74.30;;;;;;;;;;5056815;28;20052;-59
2022/07/30 04:12:40;;;;;;;363.23;65.97;;;;;;;;;;5048613;28;20479;-59
2022/07/30 04:15:07;;;;;;;330.47;59.30;;;;;;;;;;5047782;28;20136;-58
2022/07/30 04:17:35;;;;;;;470.00;81.20;;;;;;;;;;5048022;28;20044;-59
2022/07/30 04:20:06;;;;;;;313.27;63.67;;;;;;;;;;5047163;28;20077;-59
2022/07/30 04:22:34;;;;;;;228.50;48.17;;;;;;;;;;5048530;28;20053;-59
2022/07/30 04:25:01;;;;;;;363.93;62.17;;;;;;;;;;5047544;28;20123;-59
2022/07/30 04:27:28;;;;;;;306.53;58.93;;;;;;;;;;5048294;28;20048;-59
2022/07/30 04:29:54;;;;;;;329.90;57.63;;;;;;;;;;5047847;28;20564;-59
2022/07/30 04:32:20;;;;;;;354.27;60.10;;;;;;;;;;5066149;28;20127;-60
2022/07/30 04:34:51;;;;;;;375.47;60.77;;;;;;;;;;5068229;28;20040;-59
2022/07/30 04:37:18;;;;;;;173.70;37.50;;;;;;;;;;5068232;28;20044;-59
2022/07/30 04:39:44;;;;;;;135.97;41.40;;;;;;;;;;5068191;28;20056;-59
2022/07/30 04:42:10;;;;;;;174.63;32.93;;;;;;;;;;5067766;28;20506;-59
2022/07/30 04:44:37;;;;;;;296.97;57.77;;;;;;;;;;5067471;28;20059;-59
2022/07/30 04:47:03;;;;;;;242.67;48.87;;;;;;;;;;5048509;28;20091;-59
2022/07/30 04:49:29;;;;;;;333.50;60.70;;;;;;;;;;5047657;28;20411;-59
2022/07/30 04:51:56;;;;;;;222.57;50.70;;;;;;;;;;5047771;28;20052;-59
2022/07/30 04:54:23;;;;;;;260.03;50.97;;;;;;;;;;5047457;28;20114;-59
2022/07/30 04:56:50;;;;;;;206.53;44.03;;;;;;;;;;5047878;28;20375;-59
2022/07/30 04:59:17;;;;;;;178.17;42.47;;;;;;;;;;5047898;28;20045;-59
2022/07/30 05:01:45;;;;;;;253.33;50.23;;;;;;;;;;5047672;28;20045;-59
2022/07/30 05:04:12;;;;;;;115.63;34.33;;;;;;;;;;5048008;28;20041;-59
2022/07/30 05:06:38;;;;;;;113.10;34.80;;;;;;;;;;5047569;28;20056;-59
2022/07/30 05:09:05;;;;;;;143.87;44.17;;;;;;;;;;5047349;28;20478;-59
2022/07/30 05:11:31;;;;;;;137.97;33.63;;;;;;;;;;5047353;28;20077;-59
2022/07/30 05:13:57;;;;;;;240.13;47.23;;;;;;;;;;5047970;28;20134;-59
2022/07/30 05:16:23;;;;;;;218.80;46.17;;;;;;;;;;5047348;28;20475;-59
2022/07/30 05:18:50;;;;;;;132.40;39.50;;;;;;;;;;5047335;28;20152;-59
2022/07/30 05:21:16;;;;;;;120.27;30.27;;;;;;;;;;5047387;28;20049;-59
2022/07/30 05:23:42;;;;;;;188.40;46.43;;;;;;;;;;5051026;28;20060;-59
2022/07/30 05:26:08;;;;;;;104.60;31.37;;;;;;;;;;5067635;28;20041;-59
2022/07/30 05:28:34;;;;;;;92.77;32.60;;;;;;;;;;5067376;28;20067;-59
2022/07/30 05:31:00;;;;;;;134.97;39.10;;;;;;;;;;5067929;28;20119;-59
2022/07/30 05:33:26;;;;;;;99.00;27.53;;;;;;;;;;5067455;28;20047;-59
2022/07/30 05:35:52;;;;;;;183.37;41.20;;;;;;;;;;5051121;28;20138;-59
2022/07/30 05:38:18;;;;;;;192.60;39.67;;;;;;;;;;5051532;28;20052;-59
2022/07/30 05:40:45;;;;;;;227.57;45.30;;;;;;;;;;5050953;28;20134;-60
2022/07/30 05:43:11;;;;;;;115.93;29.53;;;;;;;;;;5051104;28;20152;-59
2022/07/30 05:45:37;;;;;;;115.40;27.97;;;;;;;;;;5050677;28;20049;-59
2022/07/30 05:48:03;;;;;;;104.47;28.43;;;;;;;;;;5053204;28;20067;-59
2022/07/30 05:50:29;;;;;;;139.03;31.67;;;;;;;;;;5070401;28;20044;-59
2022/07/30 05:52:57;;;;;;;121.00;29.57;;;;;;;;;;5071055;28;20128;-59
2022/07/30 05:55:23;;;;;;;94.17;26.23;;;;;;;;;;5070891;28;20056;-59
2022/07/30 05:57:49;;;;;;;123.17;28.07;;;;;;;;;;5068297;28;20060;-59
2022/07/30 06:00:15;;;;;;;106.77;27.07;;;;;;;;;;5050737;28;20044;-60
2022/07/30 06:02:41;;;;;;;48.20;19.73;;;;;;;;;;5050953;28;20045;-59
2022/07/30 06:05:07;;;;;;;61.20;21.07;;;;;;;;;;5050251;28;20075;-59
2022/07/30 06:07:34;;;;;;;97.37;21.13;;;;;;;;;;5050632;28;20048;-59
2022/07/30 06:10:00;;;;;;;72.47;22.43;;;;;;;;;;5050357;28;20084;-59
2022/07/30 06:12:30;;;;;;;40.27;16.50;;;;;;;;;;5063998;28;20099;-60
2022/07/30 06:14:56;;;;;;;32.37;16.40;;;;;;;;;;5070793;28;20179;-59
2022/07/30 06:17:22;;;;;;;56.50;19.10;;;;;;;;;;5070444;28;20048;-59
2022/07/30 06:19:49;;;;;;;64.30;19.53;;;;;;;;;;5069845;28;20044;-59
2022/07/30 06:22:15;;;;;;;43.53;16.17;;;;;;;;;;5070012;28;20036;-59
2022/07/30 06:24:41;;;;;;;42.83;17.20;;;;;;;;;;5067120;28;20045;-59
2022/07/30 06:27:08;;;;;;;46.60;16.37;;;;;;;;;;5049857;28;20428;-59
2022/07/30 06:29:34;;;;;;;40.20;14.90;;;;;;;;;;5050009;28;20052;-59
2022/07/30 06:32:00;;;;;;;28.87;14.10;;;;;;;;;;5050283;28;20095;-59
2022/07/30 06:34:26;;;;;;;23.73;14.13;;;;;;;;;;5049756;28;20052;-59
2022/07/30 06:36:52;;;;;;;28.43;15.40;;;;;;;;;;5049578;28;20486;-60
2022/07/30 06:39:18;;;;;;;19.03;12.63;;;;;;;;;;5062105;28;20049;-59
2022/07/30 06:41:44;;;;;;;25.03;13.67;;;;;;;;;;5069315;28;20783;-59
2022/07/30 06:44:11;;;;;;;24.87;11.93;;;;;;;;;;5069338;28;20375;-59
2022/07/30 06:46:37;;;;;;;24.07;12.90;;;;;;;;;;5069850;28;20044;-58
2022/07/30 06:49:03;;;;;;;14.53;11.77;;;;;;;;;;5069107;28;20048;-59
2022/07/30 06:51:29;;;;;;;14.93;12.27;;;;;;;;;;5069805;28;20110;-58
2022/07/30 06:53:55;;;;;;;22.40;13.50;;;;;;;;;;5058386;28;20450;-59
2022/07/30 06:56:21;;;;;;;14.10;10.97;;;;;;;;;;5049834;28;20040;-59
2022/07/30 06:58:47;;;;;;;15.57;11.10;;;;;;;;;;5049317;28;20122;-59
2022/07/30 07:01:13;;;;;;;18.67;11.33;;;;;;;;;;5049762;28;20124;-58
2022/07/30 07:03:39;;;;;;;15.93;11.43;;;;;;;;;;5050081;28;20049;-59
2022/07/30 07:06:05;;;;;;;14.47;9.67;;;;;;;;;;5049830;28;20053;-59
2022/07/30 07:08:31;;;;;;;14.73;9.77;;;;;;;;;;5048952;28;20141;-62
2022/07/30 07:10:57;;;;;;;13.17;8.73;;;;;;;;;;5049964;28;20482;-59
2022/07/30 07:13:23;;;;;;;12.70;8.47;;;;;;;;;;5049342;28;20044;-59
2022/07/30 07:15:49;;;;;;;18.70;9.33;;;;;;;;;;5049026;28;20136;-59
2022/07/30 07:18:15;;;;;;;18.47;8.67;;;;;;;;;;5065239;28;20766;-59
2022/07/30 07:20:42;;;;;;;13.10;7.73;;;;;;;;;;5049034;28;20059;-58
2022/07/30 07:23:08;;;;;;;18.47;8.10;;;;;;;;;;5049487;28;20052;-58
2022/07/30 07:25:34;;;;;;;11.53;7.50;;;;;;;;;;5049163;28;20438;-58
2022/07/30 07:28:00;;;;;;;12.87;7.10;;;;;;;;;;5047873;28;20041;-59
2022/07/30 07:30:26;;;;;;;13.43;7.00;;;;;;;;;;5048978;28;20059;-58
2022/07/30 07:32:52;;;;;;;10.27;5.90;;;;;;;;;;5049018;28;20080;-58
2022/07/30 07:35:18;;;;;;;10.80;5.83;;;;;;;;;;5048530;28;20079;-60
2022/07/30 07:37:44;;;;;;;9.77;5.73;;;;;;;;;;5048920;28;20507;-57
2022/07/30 07:40:11;;;;;;;13.87;6.13;;;;;;;;;;5048769;28;20136;-57
2022/07/30 07:42:37;;;;;;;11.70;6.30;;;;;;;;;;5048498;28;20047;-58
2022/07/30 07:45:03;;;;;;;10.40;5.40;;;;;;;;;;5048814;28;20049;-58
2022/07/30 07:47:29;;;;;;;8.77;5.20;;;;;;;;;;5048621;28;20083;-59
2022/07/30 07:49:55;;;;;;;7.77;4.37;;;;;;;;;;5048885;28;20578;-58
2022/07/30 07:52:21;;;;;;;9.90;4.03;;;;;;;;;;5048052;28;20045;-58
2022/07/30 07:54:47;;;;;;;11.50;3.90;;;;;;;;;;5048496;28;20095;-59
2022/07/30 07:57:13;;;;;;;10.17;4.63;;;;;;;;;;5048706;28;20087;-59
2022/07/30 07:59:39;;;;;;;8.53;4.20;;;;;;;;;;5067459;28;20051;-59
2022/07/30 08:02:05;;;;;;;9.23;4.07;;;;;;;;;;5068549;28;20044;-59
2022/07/30 08:04:31;;;;;;;9.27;3.77;;;;;;;;;;5068342;28;20364;-59
2022/07/30 08:06:57;;;;;;;13.17;4.07;;;;;;;;;;5068028;28;20044;-59
2022/07/30 08:09:23;;;;;;;6.17;2.97;;;;;;;;;;5066554;28;20071;-59
2022/07/30 08:11:49;;;;;;;8.33;3.37;;;;;;;;;;5068324;28;20114;-59
2022/07/30 08:14:15;;;;;;;7.20;3.30;;;;;;;;;;5067991;28;20499;-59
2022/07/30 08:16:41;;;;;;;7.27;2.40;;;;;;;;;;5067906;28;20041;-60
2022/07/30 08:19:07;;;;;;;8.13;3.20;;;;;;;;;;5068160;28;20048;-59
2022/07/30 08:21:33;;;;;;;10.20;3.67;;;;;;;;;;5068152;28;20048;-59
2022/07/30 08:24:00;;;;;;;6.70;3.13;;;;;;;;;;5067490;28;20044;-59
2022/07/30 08:26:26;;;;;;;8.33;2.67;;;;;;;;;;5066927;28;20520;-59
2022/07/30 08:28:52;;;;;;;6.87;2.57;;;;;;;;;;5067656;28;20106;-59
2022/07/30 08:31:18;;;;;;;6.67;3.07;;;;;;;;;;5067806;28;20174;-60
2022/07/30 08:33:44;;;;;;;8.60;2.33;;;;;;;;;;5067591;28;20071;-59
2022/07/30 08:36:10;;;;;;;9.00;2.67;;;;;;;;;;5066734;28;20598;-59
2022/07/30 08:38:36;;;;;;;8.03;2.33;;;;;;;;;;5047969;28;20049;-59
2022/07/30 08:41:02;;;;;;;10.27;3.10;;;;;;;;;;5047892;28;20048;-59
2022/07/30 08:43:28;;;;;;;7.27;2.50;;;;;;;;;;5047360;28;20045;-59
2022/07/30 08:45:56;;;;;;;9.13;2.67;;;;;;;;;;5047623;28;20052;-59
2022/07/30 08:48:23;;;;;;;10.43;2.73;;;;;;;;;;5046893;28;20943;-59
2022/07/30 08:50:49;;;;;;;12.23;2.70;;;;;;;;;;5047484;28;20049;-60
2022/07/30 08:53:16;;;;;;;9.17;3.43;;;;;;;;;;5047507;28;20045;-59
2022/07/30 08:55:43;;;;;;;6.70;2.33;;;;;;;;;;5047752;28;20048;-59
2022/07/30 08:58:25;;;;;;;10.30;2.63;;;;;;;;;;5047105;28;20080;-59
2022/07/30 09:00:51;;;;;;;6.85;2.20;;;;;;;;;;5047306;28;20045;-59
2022/07/30 09:03:17;;;;;;;7.75;2.92;;;;;;;;;;5047707;28;20434;-59
2022/07/30 09:05:43;;;;;;;8.05;2.90;;;;;;;;;;5049673;28;20632;-59
2022/07/30 09:08:09;;;;;;;6.93;2.67;;;;;;;;;;5054401;28;20052;-59
2022/07/30 09:10:35;;;;;;;8.35;2.85;;;;;;;;;;5053436;28;20419;-59
2022/07/30 09:13:01;;;;;;;10.20;2.83;;;;;;;;;;5054389;28;20056;-59
2022/07/30 09:15:28;;;;;;;7.78;3.05;;;;;;;;;;5054591;28;20072;-59
2022/07/30 09:17:54;;;;;;;5.90;2.25;;;;;;;;;;5054139;28;20443;-59
2022/07/30 09:20:21;;;;;;;6.85;2.60;;;;;;;;;;5053838;28;20075;-59
2022/07/30 09:22:49;;;;;;;9.05;2.45;;;;;;;;;;5054239;28;20045;-59
2022/07/30 09:25:15;;;;;;;9.32;2.70;;;;;;;;;;5052258;28;20088;-59
2022/07/30 09:27:45;;;;;;;5.20;1.90;;;;;;;;;;5053811;28;20164;-59
2022/07/30 09:30:11;;;;;;;6.72;1.80;;;;;;;;;;5054661;28;20411;-59
2022/07/30 09:32:51;;;;;;;10.85;2.53;;;;;;;;;;5054385;28;20056;-59
2022/07/30 09:35:17;;;;;;;7.03;1.85;;;;;;;;;;5053100;28;20045;-59
2022/07/30 09:37:44;;;;;;;7.90;2.00;;;;;;;;;;5053842;28;20040;-60
2022/07/30 09:40:14;;;;;;;7.30;2.80;;;;;;;;;;5053887;28;20052;-59
2022/07/30 09:42:41;;;;;;;4.68;2.33;;;;;;;;;;5052278;28;20513;-59
2022/07/30 09:45:08;;;;;;;4.90;2.20;;;;;;;;;;5053975;28;20067;-59
2022/07/30 09:47:38;;;;;;;6.55;2.20;;;;;;;;;;5053548;28;20707;-59
2022/07/30 09:50:05;;;;;;;7.43;3.25;;;;;;;;;;5053923;28;20132;-59
2022/07/30 09:52:31;;;;;;;6.18;2.40;;;;;;;;;;5053351;28;20052;-60
2022/07/30 09:54:58;;;;;;;6.30;2.35;;;;;;;;;;5053310;28;20525;-60
2022/07/30 09:57:24;;;;;;;5.63;2.05;;;;;;;;;;5052779;28;20060;-60
2022/07/30 09:59:50;;;;;;;9.15;3.47;;;;;;;;;;5069587;28;20164;-60
2022/07/30 10:02:16;;;;;;;7.32;2.70;;;;;;;;;;5073700;28;20139;-60
2022/07/30 10:04:42;;;;;;;5.60;2.78;;;;;;;;;;5073570;28;20499;-60
2022/07/30 10:07:16;;;;;;;10.52;2.25;;;;;;;;;;5073838;28;20048;-60
2022/07/30 10:09:44;;;;;;;5.53;2.40;;;;;;;;;;5073919;28;20135;-60
2022/07/30 10:12:10;;;;;;;5.78;2.30;;;;;;;;;;5073586;28;20063;-60
2022/07/30 10:14:37;;;;;;;5.50;2.80;;;;;;;;;;5073014;28;20044;-60
2022/07/30 10:17:03;;;;;;;10.02;2.58;;;;;;;;;;5071364;28;20459;-59
2022/07/30 10:19:29;;;;;;;8.30;2.95;;;;;;;;;;5070225;28;20406;-60
2022/07/30 10:21:56;;;;;;;7.78;3.42;;;;;;;;;;5069825;28;20536;-60
2022/07/30 10:24:23;;;;;;;8.35;2.58;;;;;;;;;;5070565;28;20123;-60
2022/07/30 10:26:49;;;;;;;9.60;2.97;;;;;;;;;;5070343;28;20040;-60
2022/07/30 10:29:19;;;;;;;7.90;2.83;;;;;;;;;;5069300;28;20488;-59
2022/07/30 10:31:46;;;;;;;8.85;3.20;;;;;;;;;;5070395;28;20147;-60
2022/07/30 10:34:13;;;;;;;7.40;2.60;;;;;;;;;;5070346;28;20064;-60
2022/07/30 10:36:44;;;;;;;4.03;2.55;;;;;;;;;;5069862;28;20049;-60
2022/07/30 10:39:12;;;;;;;5.82;2.72;;;;;;;;;;5070438;28;20067;-60
2022/07/30 10:41:41;;;;;;;10.55;2.35;;;;;;;;;;5062843;28;20132;-60
2022/07/30 10:44:25;;;;;;;5.43;2.47;;;;;;;;;;5050102;28;20420;-60
2022/07/30 10:46:51;;;;;;;6.43;2.67;;;;;;;;;;5049445;28;20053;-60
2022/07/30 10:49:17;;;;;;;5.55;2.25;;;;;;;;;;5049927;28;20052;-60
2022/07/30 10:51:51;;;;;;;6.28;2.17;;;;;;;;;;5049971;28;20056;-60
2022/07/30 10:54:36;;;;;;;6.90;2.20;;;;;;;;;;5049772;28;20502;-60
2022/07/30 10:57:06;;;;;;;6.53;1.95;;;;;;;;;;5049737;28;20041;-60
2022/07/30 10:59:51;;;;;;;8.45;1.95;;;;;;;;;;5048973;28;20053;-60
2022/07/30 11:02:18;;;;;;;7.72;1.77;;;;;;;;;;5049845;28;20103;-60
2022/07/30 11:04:44;;;;;;;6.13;2.22;;;;;;;;;;5049432;28;20510;-60
2022/07/30 11:07:22;;;;;;;8.13;2.13;;;;;;;;;;5049991;28;20482;-60
2022/07/30 11:09:52;;;;;;;6.53;1.70;;;;;;;;;;5049409;28;20056;-60
2022/07/30 11:12:36;;;;;;;4.55;1.88;;;;;;;;;;5049650;28;20045;-60
2022/07/30 11:15:02;;;;;;;7.35;2.00;;;;;;;;;;5049255;28;20066;-60
2022/07/30 11:17:48;;;;;;;4.80;1.50;;;;;;;;;;5054141;28;20090;-59
2022/07/30 11:20:17;;;;;;;5.68;2.00;;;;;;;;;;5068997;28;20051;-60
2022/07/30 11:22:48;;;;;;;6.53;1.90;;;;;;;;;;5068779;28;20057;-60
2022/07/30 11:25:29;;;;;;;6.50;2.05;;;;;;;;;;5068853;28;20399;-60
2022/07/30 11:27:55;;;;;;;6.80;1.83;;;;;;;;;;5069127;28;20079;-60
2022/07/30 11:30:21;;;;;;;7.30;1.73;;;;;;;;;;5068685;28;20434;-60
2022/07/30 11:32:49;;;;;;;5.35;1.63;;;;;;;;;;5057928;28;20041;-60
2022/07/30 11:35:18;;;;;;;5.05;1.63;;;;;;;;;;5048894;28;20053;-59
2022/07/30 11:37:56;;;;;;;3.90;1.65;;;;;;;;;;5048848;28;20392;-60
2022/07/30 11:40:23;;;;;;;7.97;1.85;;;;;;;;;;5048685;28;20057;-60
2022/07/30 11:42:50;;;;;;;7.38;1.77;;;;;;;;;;5048944;28;20041;-59
2022/07/30 11:45:16;;;;;;;5.30;1.80;;;;;;;;;;5048608;28;20404;-59
2022/07/30 11:47:46;;;;;;;5.43;1.73;;;;;;;;;;5048677;28;20123;-60
2022/07/30 11:50:18;;;;;;;7.55;1.77;;;;;;;;;;5049351;28;20394;-60
2022/07/30 11:52:50;;;;;;;4.68;1.50;;;;;;;;;;5048769;28;20045;-60
2022/07/30 11:55:24;;;;;;;5.65;1.60;;;;;;;;;;5048054;28;20049;-60
2022/07/30 11:57:50;;;;;;;3.80;1.25;;;;;;;;;;5048474;28;20128;-60
2022/07/30 12:00:19;;;;;;;6.50;1.73;;;;;;;;;;5048508;28;20045;-60
2022/07/30 12:02:46;;;;;;;3.45;1.50;;;;;;;;;;5050428;28;20045;-60
2022/07/30 12:05:12;;;;;;;5.13;1.27;;;;;;;;;;5048618;28;20087;-60
2022/07/30 12:07:38;;;;;;;4.22;1.20;;;;;;;;;;5048248;28;20048;-60
2022/07/30 12:10:19;;;;;;;3.35;1.73;;;;;;;;;;5048201;28;20044;-60
2022/07/30 12:12:46;;;;;;;3.85;2.10;;;;;;;;;;5048597;28;20045;-60
2022/07/30 12:15:27;;;;;;;3.95;1.33;;;;;;;;;;5047997;28;20567;-60
2022/07/30 12:17:53;;;;;;;4.17;1.73;;;;;;;;;;5064724;28;20123;-60
2022/07/30 12:20:19;;;;;;;4.68;1.50;;;;;;;;;;5067024;28;20103;-60
2022/07/30 12:22:46;;;;;;;4.22;1.73;;;;;;;;;;5067327;28;20090;-60
2022/07/30 12:25:13;;;;;;;6.53;1.33;;;;;;;;;;5068130;28;20044;-60
2022/07/30 12:27:39;;;;;;;3.97;1.60;;;;;;;;;;5068436;28;20085;-60
2022/07/30 12:30:05;;;;;;;4.50;1.40;;;;;;;;;;5056558;28;20136;-60
2022/07/30 12:32:31;;;;;;;4.75;1.10;;;;;;;;;;5047609;28;20131;-60
2022/07/30 12:34:58;;;;;;;4.32;1.30;;;;;;;;;;5048117;28;20041;-60
2022/07/30 12:37:24;;;;;;;4.65;1.20;;;;;;;;;;5047804;28;20055;-59
2022/07/30 12:40:17;;;;;;;7.20;1.27;;;;;;;;;;5047186;28;20045;-60
2022/07/30 12:42:52;;;;;;;3.35;1.30;;;;;;;;;;5046347;28;20489;-60
2022/07/30 12:45:32;;;;;;;4.60;1.50;;;;;;;;;;5047808;28;20052;-60
2022/07/30 12:47:58;;;;;;;2.20;1.10;;;;;;;;;;5047713;28;20055;-60
2022/07/30 12:50:25;;;;;;;2.58;1.00;;;;;;;;;;5047689;28;20467;-60
2022/07/30 12:52:52;;;;;;;3.65;1.20;;;;;;;;;;5047770;28;20063;-59
2022/07/30 12:55:19;;;;;;;3.95;1.20;;;;;;;;;;5047781;28;20135;-60
2022/07/30 12:57:51;;;;;;;4.15;1.17;;;;;;;;;;5046870;28;20049;-60
2022/07/30 13:00:17;;;;;;;3.55;1.25;;;;;;;;;;5048019;28;20067;-60
2022/07/30 13:02:43;;;;;;;5.25;1.45;;;;;;;;;;5047981;28;20041;-60
2022/07/30 13:05:09;;;;;;;2.45;1.10;;;;;;;;;;5046367;28;20045;-60
2022/07/30 13:07:35;;;;;;;4.82;1.40;;;;;;;;;;5048257;28;20103;-60
2022/07/30 13:10:12;;;;;;;3.80;1.23;;;;;;;;;;5048064;28;20084;-60
2022/07/30 13:12:38;;;;;;;4.95;1.13;;;;;;;;;;5047339;28;20045;-59
2022/07/30 13:15:04;;;;;;;4.65;1.20;;;;;;;;;;5048148;28;20080;-60
2022/07/30 13:17:30;;;;;;;5.00;1.65;;;;;;;;;;5046989;28;20052;-59
2022/07/30 13:19:58;;;;;;;4.93;1.40;;;;;;;;;;5047831;28;20521;-60
2022/07/30 13:22:25;;;;;;;5.10;1.17;;;;;;;;;;5047374;28;20529;-60
2022/07/30 13:24:51;;;;;;;3.05;0.93;;;;;;;;;;5047074;28;20055;-59
2022/07/30 13:27:17;;;;;;;6.43;1.30;;;;;;;;;;5046884;28;20049;-60
2022/07/30 13:29:43;;;;;;;4.55;1.40;;;;;;;;;;5056380;28;20048;-59
2022/07/30 13:32:09;;;;;;;4.03;1.45;;;;;;;;;;5067598;28;20044;-59
2022/07/30 13:34:35;;;;;;;3.22;1.00;;;;;;;;;;5067387;28;20709;-60
2022/07/30 13:37:01;;;;;;;5.53;1.10;;;;;;;;;;5067148;28;20050;-60
2022/07/30 13:39:27;;;;;;;2.63;1.08;;;;;;;;;;5066805;28;20040;-60
2022/07/30 13:41:53;;;;;;;3.33;1.35;;;;;;;;;;5057698;28;20047;-60
2022/07/30 13:44:19;;;;;;;2.60;0.90;;;;;;;;;;5047051;28;20049;-60
2022/07/30 13:46:46;;;;;;;3.75;1.65;;;;;;;;;;5046857;28;20045;-59
2022/07/30 13:49:12;;;;;;;1.98;0.90;;;;;;;;;;5047427;28;20045;-60
2022/07/30 13:51:38;;;;;;;2.35;1.10;;;;;;;;;;5047970;28;20037;-60
2022/07/30 13:54:04;;;;;;;2.15;0.90;;;;;;;;;;5051227;28;20133;-59
2022/07/30 13:56:30;;;;;;;3.25;1.10;;;;;;;;;;5058544;28;20465;-60
2022/07/30 13:58:56;;;;;;;2.40;1.00;;;;;;;;;;5071151;28;20462;-60
2022/07/30 14:01:22;;;;;;;3.53;1.70;;;;;;;;;;5070905;28;20051;-59
2022/07/30 14:03:48;;;;;;;4.00;0.90;;;;;;;;;;5070498;28;20044;-61
2022/07/30 14:06:14;;;;;;;9.70;1.35;;;;;;;;;;5070213;28;20529;-60
2022/07/30 14:08:40;;;;;;;4.68;1.00;;;;;;;;;;5068317;28;20511;-60
2022/07/30 14:11:07;;;;;;;3.95;1.00;;;;;;;;;;5067921;28;20082;-59
2022/07/30 14:13:33;;;;;;;2.92;1.10;;;;;;;;;;5070374;28;20132;-60
2022/07/30 14:15:59;;;;;;;3.10;1.20;;;;;;;;;;5071023;28;20083;-60
2022/07/30 14:18:25;;;;;;;6.55;1.17;;;;;;;;;;5069611;28;20056;-60
2022/07/30 14:20:52;;;;;;;2.35;1.20;;;;;;;;;;5070369;28;20040;-60
2022/07/30 14:23:18;;;;;;;1.70;1.00;;;;;;;;;;5070084;28;20549;-60
2022/07/30 14:25:45;;;;;;;5.25;1.23;;;;;;;;;;5070225;28;20044;-60